Pomona, Missouri
Current Conditions -  °F | °C
As of 3:53 PM on Sunday 25 Jan 2015 (Local Time) from KUNO Reporting Station
Overcast Overcast  
Wind Chill: 30°   Ceiling: 1500
Heat Index: 39°   Visibility: 10mi
Dew Point: 33°   Wind: 17mph
Humidity: 79%   Direction: 290°WNW
Pressure: 29.77"   Gusts: 25mph
Location:  36.87°N, 91.91°W
Report Text: KUNO 252153Z AUTO 29015G22KT 10SM BKN015 BKN021 OVC027 04/01 A2977 RMK AO2 PK WND 30026/2108 RAB19E29 SLP086 P0000 T00390006
Loading
Personal Weather Stations






























Interactive Weather Map New forecast layout! Learn more

10-Day Weather Forecast

Advertisements
Track Severe Weather on mobile